sensor_id;sensor_type;location;lat;lon;timestamp;P1;durP1;ratioP1;P2;durP2;ratioP2
51248;SDS011;39642;47.556;18.728;2024-01-15T00:02:10;18.55;;;11.20;;
51248;SDS011;39642;47.556;18.728;2024-01-15T00:04:39;18.77;;;11.10;;
51248;SDS011;39642;47.556;18.728;2024-01-15T00:07:09;19.55;;;11.57;;
51248;SDS011;39642;47.556;18.728;2024-01-15T00:09:35;18.75;;;11.38;;
51248;SDS011;39642;47.556;18.728;2024-01-15T00:12:01;19.17;;;11.48;;
51248;SDS011;39642;47.556;18.728;2024-01-15T00:14:27;18.85;;;11.20;;
51248;SDS011;39642;47.556;18.728;2024-01-15T00:16:54;19.60;;;11.57;;
51248;SDS011;39642;47.556;18.728;2024-01-15T00:19:21;19.23;;;11.48;;
51248;SDS011;39642;47.556;18.728;2024-01-15T00:21:47;19.62;;;11.77;;
51248;SDS011;39642;47.556;18.728;2024-01-15T00:24:13;20.08;;;12.02;;
51248;SDS011;39642;47.556;18.728;2024-01-15T00:26:39;19.25;;;11.43;;
51248;SDS011;39642;47.556;18.728;2024-01-15T00:29:08;20.00;;;11.75;;
51248;SDS011;39642;47.556;18.728;2024-01-15T00:31:35;19.62;;;11.80;;
51248;SDS011;39642;47.556;18.728;2024-01-15T00:34:01;19.25;;;11.88;;
51248;SDS011;39642;47.556;18.728;2024-01-15T00:36:27;20.27;;;11.63;;
51248;SDS011;39642;47.556;18.728;2024-01-15T00:38:53;19.80;;;12.20;;
51248;SDS011;39642;47.556;18.728;2024-01-15T00:41:19;21.80;;;12.63;;
51248;SDS011;39642;47.556;18.728;2024-01-15T00:43:45;18.65;;;12.13;;
51248;SDS011;39642;47.556;18.728;2024-01-15T00:46:12;21.87;;;12.90;;
51248;SDS011;39642;47.556;18.728;2024-01-15T00:48:37;21.58;;;13.23;;
51248;SDS011;39642;47.556;18.728;2024-01-15T00:51:04;21.08;;;12.85;;
51248;SDS011;39642;47.556;18.728;2024-01-15T00:53:30;20.35;;;12.95;;
51248;SDS011;39642;47.556;18.728;2024-01-15T00:55:56;21.12;;;13.02;;
51248;SDS011;39642;47.556;18.728;2024-01-15T00:58:22;21.50;;;12.75;;
51248;SDS011;39642;47.556;18.728;2024-01-15T01:00:48;22.33;;;13.27;;
51248;SDS011;39642;47.556;18.728;2024-01-15T01:03:14;20.98;;;12.98;;
51248;SDS011;39642;47.556;18.728;2024-01-15T01:05:40;22.60;;;13.90;;
51248;SDS011;39642;47.556;18.728;2024-01-15T01:08:06;21.35;;;13.52;;
51248;SDS011;39642;47.556;18.728;2024-01-15T01:10:31;21.80;;;13.23;;
51248;SDS011;39642;47.556;18.728;2024-01-15T01:12:57;20.42;;;12.95;;
51248;SDS011;39642;47.556;18.728;2024-01-15T01:15:23;22.15;;;13.77;;
51248;SDS011;39642;47.556;18.728;2024-01-15T01:17:50;23.73;;;14.23;;
51248;SDS011;39642;47.556;18.728;2024-01-15T01:20:16;22.35;;;13.68;;
51248;SDS011;39642;47.556;18.728;2024-01-15T01:22:41;22.17;;;14.00;;
51248;SDS011;39642;47.556;18.728;2024-01-15T01:25:07;21.17;;;13.05;;
51248;SDS011;39642;47.556;18.728;2024-01-15T01:27:35;21.83;;;13.48;;
51248;SDS011;39642;47.556;18.728;2024-01-15T01:30:01;22.35;;;14.27;;
51248;SDS011;39642;47.556;18.728;2024-01-15T01:32:27;22.87;;;14.13;;
51248;SDS011;39642;47.556;18.728;2024-01-15T01:34:53;21.33;;;13.85;;
51248;SDS011;39642;47.556;18.728;2024-01-15T01:37:19;23.62;;;14.57;;
51248;SDS011;39642;47.556;18.728;2024-01-15T01:39:45;23.25;;;14.52;;
51248;SDS011;39642;47.556;18.728;2024-01-15T01:42:11;22.85;;;14.25;;
51248;SDS011;39642;47.556;18.728;2024-01-15T01:44:37;23.20;;;14.27;;
51248;SDS011;39642;47.556;18.728;2024-01-15T01:47:03;23.12;;;14.65;;
51248;SDS011;39642;47.556;18.728;2024-01-15T01:49:29;23.02;;;14.80;;
51248;SDS011;39642;47.556;18.728;2024-01-15T01:51:56;23.40;;;14.52;;
51248;SDS011;39642;47.556;18.728;2024-01-15T01:54:24;24.00;;;14.87;;
51248;SDS011;39642;47.556;18.728;2024-01-15T01:56:52;25.95;;;16.10;;
51248;SDS011;39642;47.556;18.728;2024-01-15T01:59:18;23.85;;;15.25;;
51248;SDS011;39642;47.556;18.728;2024-01-15T02:01:44;24.55;;;15.63;;
51248;SDS011;39642;47.556;18.728;2024-01-15T02:04:11;24.95;;;15.20;;
51248;SDS011;39642;47.556;18.728;2024-01-15T02:06:37;24.00;;;15.40;;
51248;SDS011;39642;47.556;18.728;2024-01-15T02:09:03;23.83;;;15.35;;
51248;SDS011;39642;47.556;18.728;2024-01-15T02:11:29;24.27;;;15.80;;
51248;SDS011;39642;47.556;18.728;2024-01-15T02:13:55;24.90;;;16.00;;
51248;SDS011;39642;47.556;18.728;2024-01-15T02:16:21;25.58;;;15.85;;
51248;SDS011;39642;47.556;18.728;2024-01-15T02:18:46;25.00;;;15.40;;
51248;SDS011;39642;47.556;18.728;2024-01-15T02:21:12;24.77;;;15.93;;
51248;SDS011;39642;47.556;18.728;2024-01-15T02:23:38;25.15;;;14.90;;
51248;SDS011;39642;47.556;18.728;2024-01-15T02:26:04;24.25;;;15.18;;
51248;SDS011;39642;47.556;18.728;2024-01-15T02:28:30;25.12;;;15.90;;
51248;SDS011;39642;47.556;18.728;2024-01-15T02:30:58;24.85;;;15.35;;
51248;SDS011;39642;47.556;18.728;2024-01-15T02:33:24;24.02;;;14.95;;
51248;SDS011;39642;47.556;18.728;2024-01-15T02:35:50;24.55;;;15.57;;
51248;SDS011;39642;47.556;18.728;2024-01-15T02:38:16;25.25;;;15.38;;
51248;SDS011;39642;47.556;18.728;2024-01-15T02:40:43;24.05;;;14.63;;
51248;SDS011;39642;47.556;18.728;2024-01-15T02:43:09;26.08;;;16.12;;
51248;SDS011;39642;47.556;18.728;2024-01-15T02:45:35;24.27;;;15.68;;
51248;SDS011;39642;47.556;18.728;2024-01-15T02:48:01;26.08;;;16.00;;
51248;SDS011;39642;47.556;18.728;2024-01-15T02:50:27;22.67;;;14.52;;
51248;SDS011;39642;47.556;18.728;2024-01-15T02:52:53;23.92;;;15.48;;
51248;SDS011;39642;47.556;18.728;2024-01-15T02:55:19;23.55;;;15.05;;
51248;SDS011;39642;47.556;18.728;2024-01-15T02:57:45;22.80;;;14.70;;
51248;SDS011;39642;47.556;18.728;2024-01-15T03:00:11;24.80;;;15.63;;
51248;SDS011;39642;47.556;18.728;2024-01-15T03:02:37;23.17;;;14.93;;
51248;SDS011;39642;47.556;18.728;2024-01-15T03:05:09;23.50;;;14.63;;
51248;SDS011;39642;47.556;18.728;2024-01-15T03:07:35;24.60;;;14.65;;
51248;SDS011;39642;47.556;18.728;2024-01-15T03:10:01;24.65;;;14.50;;
51248;SDS011;39642;47.556;18.728;2024-01-15T03:12:27;23.00;;;15.00;;
51248;SDS011;39642;47.556;18.728;2024-01-15T03:14:53;22.90;;;15.18;;
51248;SDS011;39642;47.556;18.728;2024-01-15T03:17:19;23.30;;;14.43;;
51248;SDS011;39642;47.556;18.728;2024-01-15T03:19:45;23.55;;;15.00;;
51248;SDS011;39642;47.556;18.728;2024-01-15T03:22:11;23.65;;;13.82;;
51248;SDS011;39642;47.556;18.728;2024-01-15T03:24:37;22.58;;;14.20;;
51248;SDS011;39642;47.556;18.728;2024-01-15T03:27:03;22.05;;;13.95;;
51248;SDS011;39642;47.556;18.728;2024-01-15T03:29:29;23.52;;;14.73;;
51248;SDS011;39642;47.556;18.728;2024-01-15T03:31:55;22.05;;;13.60;;
51248;SDS011;39642;47.556;18.728;2024-01-15T03:34:21;21.67;;;13.30;;
51248;SDS011;39642;47.556;18.728;2024-01-15T03:36:47;22.35;;;14.40;;
51248;SDS011;39642;47.556;18.728;2024-01-15T03:39:12;22.33;;;13.90;;
51248;SDS011;39642;47.556;18.728;2024-01-15T03:41:38;22.00;;;14.30;;
51248;SDS011;39642;47.556;18.728;2024-01-15T03:44:04;22.02;;;14.13;;
51248;SDS011;39642;47.556;18.728;2024-01-15T03:46:30;22.55;;;14.27;;
51248;SDS011;39642;47.556;18.728;2024-01-15T03:48:56;21.10;;;13.62;;
51248;SDS011;39642;47.556;18.728;2024-01-15T03:51:22;20.95;;;13.90;;
51248;SDS011;39642;47.556;18.728;2024-01-15T03:53:48;21.42;;;13.73;;
51248;SDS011;39642;47.556;18.728;2024-01-15T03:56:14;22.37;;;14.02;;
51248;SDS011;39642;47.556;18.728;2024-01-15T03:58:40;22.33;;;14.30;;
51248;SDS011;39642;47.556;18.728;2024-01-15T04:01:09;22.65;;;13.93;;
51248;SDS011;39642;47.556;18.728;2024-01-15T04:03:36;20.17;;;12.75;;
51248;SDS011;39642;47.556;18.728;2024-01-15T04:06:02;21.95;;;14.05;;
51248;SDS011;39642;47.556;18.728;2024-01-15T04:08:29;22.62;;;14.45;;
51248;SDS011;39642;47.556;18.728;2024-01-15T04:10:55;21.30;;;13.55;;
51248;SDS011;39642;47.556;18.728;2024-01-15T04:13:21;21.65;;;13.55;;
51248;SDS011;39642;47.556;18.728;2024-01-15T04:15:48;21.45;;;14.15;;
51248;SDS011;39642;47.556;18.728;2024-01-15T04:18:15;22.37;;;13.82;;
51248;SDS011;39642;47.556;18.728;2024-01-15T04:20:41;21.17;;;13.25;;
51248;SDS011;39642;47.556;18.728;2024-01-15T04:23:07;20.58;;;12.77;;
51248;SDS011;39642;47.556;18.728;2024-01-15T04:25:33;21.15;;;13.18;;
51248;SDS011;39642;47.556;18.728;2024-01-15T04:27:59;21.27;;;13.45;;
51248;SDS011;39642;47.556;18.728;2024-01-15T04:30:25;20.77;;;13.07;;
51248;SDS011;39642;47.556;18.728;2024-01-15T04:32:51;23.10;;;14.63;;
51248;SDS011;39642;47.556;18.728;2024-01-15T04:35:17;21.35;;;13.65;;
51248;SDS011;39642;47.556;18.728;2024-01-15T04:37:43;21.25;;;13.25;;
51248;SDS011;39642;47.556;18.728;2024-01-15T04:40:09;21.87;;;13.85;;
51248;SDS011;39642;47.556;18.728;2024-01-15T04:42:35;22.13;;;13.73;;
51248;SDS011;39642;47.556;18.728;2024-01-15T04:45:01;21.80;;;13.70;;
51248;SDS011;39642;47.556;18.728;2024-01-15T04:47:26;23.00;;;14.25;;
51248;SDS011;39642;47.556;18.728;2024-01-15T04:49:52;22.25;;;13.95;;
51248;SDS011;39642;47.556;18.728;2024-01-15T04:52:18;22.25;;;13.75;;
51248;SDS011;39642;47.556;18.728;2024-01-15T04:54:44;22.58;;;13.25;;
51248;SDS011;39642;47.556;18.728;2024-01-15T04:57:10;22.52;;;13.23;;
51248;SDS011;39642;47.556;18.728;2024-01-15T04:59:36;24.25;;;14.90;;
51248;SDS011;39642;47.556;18.728;2024-01-15T05:02:02;23.27;;;14.43;;
51248;SDS011;39642;47.556;18.728;2024-01-15T05:04:28;25.48;;;15.80;;
51248;SDS011;39642;47.556;18.728;2024-01-15T05:06:54;23.05;;;13.50;;
51248;SDS011;39642;47.556;18.728;2024-01-15T05:09:20;23.85;;;13.62;;
51248;SDS011;39642;47.556;18.728;2024-01-15T05:11:46;23.60;;;14.90;;
51248;SDS011;39642;47.556;18.728;2024-01-15T05:14:12;24.27;;;14.40;;
51248;SDS011;39642;47.556;18.728;2024-01-15T05:16:38;22.35;;;13.85;;
51248;SDS011;39642;47.556;18.728;2024-01-15T05:19:07;22.95;;;14.13;;
51248;SDS011;39642;47.556;18.728;2024-01-15T05:21:33;22.27;;;13.50;;
51248;SDS011;39642;47.556;18.728;2024-01-15T05:23:59;22.73;;;14.40;;
51248;SDS011;39642;47.556;18.728;2024-01-15T05:26:25;23.65;;;14.35;;
51248;SDS011;39642;47.556;18.728;2024-01-15T05:28:51;22.17;;;13.25;;
51248;SDS011;39642;47.556;18.728;2024-01-15T05:31:17;21.92;;;13.98;;
51248;SDS011;39642;47.556;18.728;2024-01-15T05:33:42;28.30;;;15.85;;
51248;SDS011;39642;47.556;18.728;2024-01-15T05:36:08;24.85;;;14.68;;
51248;SDS011;39642;47.556;18.728;2024-01-15T05:38:34;23.30;;;13.60;;
51248;SDS011;39642;47.556;18.728;2024-01-15T05:41:00;24.77;;;14.02;;
51248;SDS011;39642;47.556;18.728;2024-01-15T05:43:26;22.77;;;14.05;;
51248;SDS011;39642;47.556;18.728;2024-01-15T05:45:52;23.52;;;13.73;;
51248;SDS011;39642;47.556;18.728;2024-01-15T05:48:18;22.92;;;12.93;;
51248;SDS011;39642;47.556;18.728;2024-01-15T05:50:44;23.87;;;13.68;;
51248;SDS011;39642;47.556;18.728;2024-01-15T05:53:10;23.60;;;14.10;;
51248;SDS011;39642;47.556;18.728;2024-01-15T05:55:36;24.87;;;14.48;;
51248;SDS011;39642;47.556;18.728;2024-01-15T05:58:03;24.27;;;14.32;;
51248;SDS011;39642;47.556;18.728;2024-01-15T06:00:30;34.70;;;17.87;;
51248;SDS011;39642;47.556;18.728;2024-01-15T06:02:55;26.27;;;15.13;;
51248;SDS011;39642;47.556;18.728;2024-01-15T06:05:21;27.35;;;16.58;;
51248;SDS011;39642;47.556;18.728;2024-01-15T06:07:47;24.98;;;15.10;;
51248;SDS011;39642;47.556;18.728;2024-01-15T06:10:13;26.62;;;16.05;;
51248;SDS011;39642;47.556;18.728;2024-01-15T06:12:39;23.60;;;15.75;;
51248;SDS011;39642;47.556;18.728;2024-01-15T06:15:05;25.58;;;15.50;;
51248;SDS011;39642;47.556;18.728;2024-01-15T06:17:31;25.55;;;15.68;;
51248;SDS011;39642;47.556;18.728;2024-01-15T06:19:57;28.62;;;16.50;;
51248;SDS011;39642;47.556;18.728;2024-01-15T06:22:23;29.52;;;15.60;;
51248;SDS011;39642;47.556;18.728;2024-01-15T06:24:49;29.98;;;17.95;;
51248;SDS011;39642;47.556;18.728;2024-01-15T06:27:15;34.90;;;19.90;;
51248;SDS011;39642;47.556;18.728;2024-01-15T06:29:45;56.10;;;27.80;;
51248;SDS011;39642;47.556;18.728;2024-01-15T06:32:15;33.70;;;17.45;;
51248;SDS011;39642;47.556;18.728;2024-01-15T06:34:41;30.98;;;18.73;;
51248;SDS011;39642;47.556;18.728;2024-01-15T06:37:06;29.30;;;16.40;;
51248;SDS011;39642;47.556;18.728;2024-01-15T06:39:32;28.83;;;16.75;;
51248;SDS011;39642;47.556;18.728;2024-01-15T06:41:58;29.58;;;17.05;;
51248;SDS011;39642;47.556;18.728;2024-01-15T06:44:24;39.47;;;21.58;;
51248;SDS011;39642;47.556;18.728;2024-01-15T06:46:50;28.40;;;16.25;;
51248;SDS011;39642;47.556;18.728;2024-01-15T06:49:17;30.92;;;15.93;;
51248;SDS011;39642;47.556;18.728;2024-01-15T06:51:43;30.50;;;16.17;;
51248;SDS011;39642;47.556;18.728;2024-01-15T06:54:08;33.65;;;19.02;;
51248;SDS011;39642;47.556;18.728;2024-01-15T06:56:34;27.75;;;17.40;;
51248;SDS011;39642;47.556;18.728;2024-01-15T06:59:00;32.65;;;17.30;;
51248;SDS011;39642;47.556;18.728;2024-01-15T07:01:26;38.88;;;17.35;;
51248;SDS011;39642;47.556;18.728;2024-01-15T07:03:52;26.40;;;15.45;;
51248;SDS011;39642;47.556;18.728;2024-01-15T07:06:18;24.55;;;14.35;;
51248;SDS011;39642;47.556;18.728;2024-01-15T07:08:44;32.10;;;18.02;;
51248;SDS011;39642;47.556;18.728;2024-01-15T07:11:10;45.85;;;23.23;;
51248;SDS011;39642;47.556;18.728;2024-01-15T07:13:36;35.80;;;20.25;;
51248;SDS011;39642;47.556;18.728;2024-01-15T07:16:03;43.67;;;22.30;;
51248;SDS011;39642;47.556;18.728;2024-01-15T07:18:29;45.80;;;23.15;;
51248;SDS011;39642;47.556;18.728;2024-01-15T07:20:55;44.95;;;23.00;;
51248;SDS011;39642;47.556;18.728;2024-01-15T07:23:21;46.28;;;23.90;;
51248;SDS011;39642;47.556;18.728;2024-01-15T07:25:47;45.40;;;22.58;;
51248;SDS011;39642;47.556;18.728;2024-01-15T07:28:13;46.40;;;23.65;;
51248;SDS011;39642;47.556;18.728;2024-01-15T07:30:39;48.20;;;23.48;;
51248;SDS011;39642;47.556;18.728;2024-01-15T07:33:05;48.78;;;23.35;;
51248;SDS011;39642;47.556;18.728;2024-01-15T07:35:31;36.05;;;20.42;;
51248;SDS011;39642;47.556;18.728;2024-01-15T07:37:57;47.08;;;23.45;;
51248;SDS011;39642;47.556;18.728;2024-01-15T07:40:23;32.35;;;17.73;;
51248;SDS011;39642;47.556;18.728;2024-01-15T07:42:50;37.78;;;21.33;;
51248;SDS011;39642;47.556;18.728;2024-01-15T07:45:16;35.78;;;19.50;;
51248;SDS011;39642;47.556;18.728;2024-01-15T07:47:43;38.38;;;20.60;;
51248;SDS011;39642;47.556;18.728;2024-01-15T07:50:09;46.20;;;24.23;;
51248;SDS011;39642;47.556;18.728;2024-01-15T07:52:36;57.55;;;29.90;;
51248;SDS011;39642;47.556;18.728;2024-01-15T07:55:02;52.25;;;29.35;;
51248;SDS011;39642;47.556;18.728;2024-01-15T07:57:30;49.90;;;26.15;;
51248;SDS011;39642;47.556;18.728;2024-01-15T07:59:56;52.28;;;29.63;;
51248;SDS011;39642;47.556;18.728;2024-01-15T08:02:22;45.78;;;27.02;;
51248;SDS011;39642;47.556;18.728;2024-01-15T08:04:48;45.53;;;22.00;;
51248;SDS011;39642;47.556;18.728;2024-01-15T08:07:14;45.25;;;25.52;;
51248;SDS011;39642;47.556;18.728;2024-01-15T08:09:40;50.42;;;24.40;;
51248;SDS011;39642;47.556;18.728;2024-01-15T08:12:06;46.70;;;25.60;;
51248;SDS011;39642;47.556;18.728;2024-01-15T08:14:32;46.30;;;24.98;;
51248;SDS011;39642;47.556;18.728;2024-01-15T08:16:58;45.38;;;24.10;;
51248;SDS011;39642;47.556;18.728;2024-01-15T08:19:24;42.67;;;24.20;;
51248;SDS011;39642;47.556;18.728;2024-01-15T08:21:50;39.72;;;22.90;;
51248;SDS011;39642;47.556;18.728;2024-01-15T08:24:16;45.38;;;23.27;;
51248;SDS011;39642;47.556;18.728;2024-01-15T08:26:42;42.45;;;22.30;;
51248;SDS011;39642;47.556;18.728;2024-01-15T08:29:08;41.67;;;21.58;;
51248;SDS011;39642;47.556;18.728;2024-01-15T08:31:34;43.60;;;21.50;;
51248;SDS011;39642;47.556;18.728;2024-01-15T08:34:00;35.35;;;20.33;;
51248;SDS011;39642;47.556;18.728;2024-01-15T08:36:27;43.03;;;20.77;;
51248;SDS011;39642;47.556;18.728;2024-01-15T08:38:56;39.80;;;19.95;;
51248;SDS011;39642;47.556;18.728;2024-01-15T08:41:22;45.12;;;21.77;;
51248;SDS011;39642;47.556;18.728;2024-01-15T08:43:48;35.25;;;18.30;;
51248;SDS011;39642;47.556;18.728;2024-01-15T08:46:14;38.70;;;19.20;;
51248;SDS011;39642;47.556;18.728;2024-01-15T08:48:40;46.78;;;20.08;;
51248;SDS011;39642;47.556;18.728;2024-01-15T08:51:06;36.78;;;19.62;;
51248;SDS011;39642;47.556;18.728;2024-01-15T08:53:33;43.20;;;19.23;;
51248;SDS011;39642;47.556;18.728;2024-01-15T08:55:59;35.97;;;18.52;;
51248;SDS011;39642;47.556;18.728;2024-01-15T08:58:25;37.80;;;16.60;;
51248;SDS011;39642;47.556;18.728;2024-01-15T09:00:51;38.83;;;16.70;;
51248;SDS011;39642;47.556;18.728;2024-01-15T09:03:18;39.50;;;16.10;;
51248;SDS011;39642;47.556;18.728;2024-01-15T09:05:44;36.00;;;15.45;;
51248;SDS011;39642;47.556;18.728;2024-01-15T09:08:10;32.28;;;14.80;;
51248;SDS011;39642;47.556;18.728;2024-01-15T09:10:36;34.50;;;19.05;;
51248;SDS011;39642;47.556;18.728;2024-01-15T09:13:02;37.92;;;16.62;;
51248;SDS011;39642;47.556;18.728;2024-01-15T09:15:30;27.25;;;13.95;;
51248;SDS011;39642;47.556;18.728;2024-01-15T09:17:56;24.83;;;12.40;;
51248;SDS011;39642;47.556;18.728;2024-01-15T09:20:24;39.70;;;18.12;;
51248;SDS011;39642;47.556;18.728;2024-01-15T09:22:51;31.70;;;14.85;;
51248;SDS011;39642;47.556;18.728;2024-01-15T09:25:17;38.58;;;18.85;;
51248;SDS011;39642;47.556;18.728;2024-01-15T09:27:44;36.55;;;18.33;;
51248;SDS011;39642;47.556;18.728;2024-01-15T09:30:10;20.77;;;10.57;;
51248;SDS011;39642;47.556;18.728;2024-01-15T09:46:09;39.67;;;12.95;;
51248;SDS011;39642;47.556;18.728;2024-01-15T09:48:35;29.92;;;12.30;;
51248;SDS011;39642;47.556;18.728;2024-01-15T09:51:02;26.37;;;10.93;;
51248;SDS011;39642;47.556;18.728;2024-01-15T09:53:29;26.50;;;9.80;;
51248;SDS011;39642;47.556;18.728;2024-01-15T09:55:57;22.73;;;9.27;;
51248;SDS011;39642;47.556;18.728;2024-01-15T09:58:25;23.40;;;9.57;;
51248;SDS011;39642;47.556;18.728;2024-01-15T10:00:51;27.77;;;10.60;;
51248;SDS011;39642;47.556;18.728;2024-01-15T10:03:18;29.85;;;11.93;;
51248;SDS011;39642;47.556;18.728;2024-01-15T10:05:44;28.08;;;10.88;;
51248;SDS011;39642;47.556;18.728;2024-01-15T10:08:10;39.88;;;10.75;;
51248;SDS011;39642;47.556;18.728;2024-01-15T10:10:37;30.12;;;11.20;;
51248;SDS011;39642;47.556;18.728;2024-01-15T10:13:03;28.45;;;10.77;;
51248;SDS011;39642;47.556;18.728;2024-01-15T10:15:33;25.00;;;10.80;;
51248;SDS011;39642;47.556;18.728;2024-01-15T10:17:59;39.58;;;10.60;;
51248;SDS011;39642;47.556;18.728;2024-01-15T10:20:25;29.33;;;10.40;;
51248;SDS011;39642;47.556;18.728;2024-01-15T10:22:51;26.83;;;9.68;;
51248;SDS011;39642;47.556;18.728;2024-01-15T10:25:17;26.95;;;9.75;;
51248;SDS011;39642;47.556;18.728;2024-01-15T10:27:57;27.23;;;10.15;;
51248;SDS011;39642;47.556;18.728;2024-01-15T10:30:25;25.67;;;9.25;;
51248;SDS011;39642;47.556;18.728;2024-01-15T10:32:58;23.23;;;8.52;;
51248;SDS011;39642;47.556;18.728;2024-01-15T10:35:33;26.90;;;9.75;;
51248;SDS011;39642;47.556;18.728;2024-01-15T10:38:02;21.02;;;8.60;;
51248;SDS011;39642;47.556;18.728;2024-01-15T10:40:29;23.23;;;8.98;;
51248;SDS011;39642;47.556;18.728;2024-01-15T10:42:55;26.08;;;8.18;;
51248;SDS011;39642;47.556;18.728;2024-01-15T10:45:21;33.08;;;9.35;;
51248;SDS011;39642;47.556;18.728;2024-01-15T10:47:47;24.60;;;7.87;;
51248;SDS011;39642;47.556;18.728;2024-01-15T10:50:19;35.72;;;8.85;;
51248;SDS011;39642;47.556;18.728;2024-01-15T10:52:47;29.58;;;7.95;;
51248;SDS011;39642;47.556;18.728;2024-01-15T10:55:13;28.10;;;7.97;;
51248;SDS011;39642;47.556;18.728;2024-01-15T10:57:39;27.65;;;8.68;;
51248;SDS011;39642;47.556;18.728;2024-01-15T11:00:05;29.75;;;9.13;;
51248;SDS011;39642;47.556;18.728;2024-01-15T11:02:32;33.67;;;9.63;;
51248;SDS011;39642;47.556;18.728;2024-01-15T11:05:01;35.13;;;9.13;;
51248;SDS011;39642;47.556;18.728;2024-01-15T11:07:29;27.92;;;8.52;;
51248;SDS011;39642;47.556;18.728;2024-01-15T11:09:56;40.42;;;9.00;;
51248;SDS011;39642;47.556;18.728;2024-01-15T11:12:24;39.25;;;9.18;;
51248;SDS011;39642;47.556;18.728;2024-01-15T11:14:50;34.85;;;9.35;;
51248;SDS011;39642;47.556;18.728;2024-01-15T11:17:16;39.53;;;9.82;;
51248;SDS011;39642;47.556;18.728;2024-01-15T11:19:44;42.00;;;10.52;;
51248;SDS011;39642;47.556;18.728;2024-01-15T11:22:54;36.92;;;9.75;;
51248;SDS011;39642;47.556;18.728;2024-01-15T11:25:13;32.28;;;9.35;;
51248;SDS011;39642;47.556;18.728;2024-01-15T11:27:40;30.58;;;7.78;;
51248;SDS011;39642;47.556;18.728;2024-01-15T11:30:09;36.15;;;9.50;;
51248;SDS011;39642;47.556;18.728;2024-01-15T11:32:37;34.63;;;9.45;;
51248;SDS011;39642;47.556;18.728;2024-01-15T11:35:07;31.02;;;9.02;;
51248;SDS011;39642;47.556;18.728;2024-01-15T11:43:03;32.85;;;8.05;;
51248;SDS011;39642;47.556;18.728;2024-01-15T11:45:31;39.47;;;7.72;;
51248;SDS011;39642;47.556;18.728;2024-01-15T11:53:33;32.63;;;7.15;;
51248;SDS011;39642;47.556;18.728;2024-01-15T11:55:59;35.55;;;7.75;;
51248;SDS011;39642;47.556;18.728;2024-01-15T11:58:28;27.20;;;5.72;;
51248;SDS011;39642;47.556;18.728;2024-01-15T12:00:54;33.05;;;6.78;;
51248;SDS011;39642;47.556;18.728;2024-01-15T12:03:21;34.72;;;7.28;;
51248;SDS011;39642;47.556;18.728;2024-01-15T12:05:53;31.27;;;7.28;;
51248;SDS011;39642;47.556;18.728;2024-01-15T12:08:23;35.50;;;7.03;;
51248;SDS011;39642;47.556;18.728;2024-01-15T12:10:49;26.58;;;7.47;;
51248;SDS011;39642;47.556;18.728;2024-01-15T12:13:16;24.45;;;6.87;;
51248;SDS011;39642;47.556;18.728;2024-01-15T12:15:43;26.20;;;6.07;;
51248;SDS011;39642;47.556;18.728;2024-01-15T12:18:14;36.10;;;8.38;;
51248;SDS011;39642;47.556;18.728;2024-01-15T12:20:42;39.20;;;8.77;;
51248;SDS011;39642;47.556;18.728;2024-01-15T12:23:09;33.47;;;10.02;;
51248;SDS011;39642;47.556;18.728;2024-01-15T12:25:39;23.98;;;5.60;;
51248;SDS011;39642;47.556;18.728;2024-01-15T12:28:05;27.48;;;9.45;;
51248;SDS011;39642;47.556;18.728;2024-01-15T12:30:33;31.17;;;9.45;;
51248;SDS011;39642;47.556;18.728;2024-01-15T12:33:06;34.33;;;9.02;;
51248;SDS011;39642;47.556;18.728;2024-01-15T12:35:33;30.35;;;7.43;;
51248;SDS011;39642;47.556;18.728;2024-01-15T12:38:00;30.62;;;8.10;;
51248;SDS011;39642;47.556;18.728;2024-01-15T12:40:28;24.77;;;7.55;;
51248;SDS011;39642;47.556;18.728;2024-01-15T12:42:54;21.50;;;6.45;;
51248;SDS011;39642;47.556;18.728;2024-01-15T12:45:20;34.95;;;8.68;;
51248;SDS011;39642;47.556;18.728;2024-01-15T12:47:46;24.77;;;4.47;;
51248;SDS011;39642;47.556;18.728;2024-01-15T12:50:13;18.40;;;5.25;;
51248;SDS011;39642;47.556;18.728;2024-01-15T12:52:40;27.25;;;6.90;;
51248;SDS011;39642;47.556;18.728;2024-01-15T12:55:07;28.83;;;5.82;;
51248;SDS011;39642;47.556;18.728;2024-01-15T12:57:37;31.17;;;7.68;;
51248;SDS011;39642;47.556;18.728;2024-01-15T13:00:04;29.73;;;6.32;;
51248;SDS011;39642;47.556;18.728;2024-01-15T13:02:38;25.77;;;6.50;;
51248;SDS011;39642;47.556;18.728;2024-01-15T13:05:06;34.47;;;7.45;;
51248;SDS011;39642;47.556;18.728;2024-01-15T13:07:34;33.88;;;7.78;;
51248;SDS011;39642;47.556;18.728;2024-01-15T13:09:59;25.55;;;6.80;;
51248;SDS011;39642;47.556;18.728;2024-01-15T13:12:25;26.87;;;6.97;;
51248;SDS011;39642;47.556;18.728;2024-01-15T13:14:51;20.60;;;4.05;;
51248;SDS011;39642;47.556;18.728;2024-01-15T13:17:17;32.90;;;5.95;;
51248;SDS011;39642;47.556;18.728;2024-01-15T13:19:43;18.25;;;4.87;;
51248;SDS011;39642;47.556;18.728;2024-01-15T13:22:09;21.35;;;6.47;;
51248;SDS011;39642;47.556;18.728;2024-01-15T13:24:35;26.10;;;6.18;;
51248;SDS011;39642;47.556;18.728;2024-01-15T13:27:02;29.52;;;7.18;;
51248;SDS011;39642;47.556;18.728;2024-01-15T13:29:30;29.33;;;6.15;;
51248;SDS011;39642;47.556;18.728;2024-01-15T13:31:57;27.60;;;6.40;;
51248;SDS011;39642;47.556;18.728;2024-01-15T13:34:23;30.90;;;6.68;;
51248;SDS011;39642;47.556;18.728;2024-01-15T13:36:49;24.95;;;6.80;;
51248;SDS011;39642;47.556;18.728;2024-01-15T13:39:15;20.85;;;5.53;;
51248;SDS011;39642;47.556;18.728;2024-01-15T13:41:46;26.17;;;6.55;;
51248;SDS011;39642;47.556;18.728;2024-01-15T13:44:12;19.52;;;5.22;;
51248;SDS011;39642;47.556;18.728;2024-01-15T13:46:38;26.10;;;5.05;;
51248;SDS011;39642;47.556;18.728;2024-01-15T13:49:07;20.95;;;4.43;;
51248;SDS011;39642;47.556;18.728;2024-01-15T13:51:35;19.17;;;6.12;;
51248;SDS011;39642;47.556;18.728;2024-01-15T13:54:02;22.30;;;5.65;;
51248;SDS011;39642;47.556;18.728;2024-01-15T13:56:30;18.73;;;4.78;;
51248;SDS011;39642;47.556;18.728;2024-01-15T13:58:58;25.25;;;5.75;;
51248;SDS011;39642;47.556;18.728;2024-01-15T14:01:25;27.23;;;6.50;;
51248;SDS011;39642;47.556;18.728;2024-01-15T14:03:53;21.80;;;4.28;;
51248;SDS011;39642;47.556;18.728;2024-01-15T14:06:19;21.00;;;4.62;;
51248;SDS011;39642;47.556;18.728;2024-01-15T14:08:45;14.02;;;3.53;;
51248;SDS011;39642;47.556;18.728;2024-01-15T14:11:11;18.85;;;5.50;;
51248;SDS011;39642;47.556;18.728;2024-01-15T14:13:37;18.15;;;4.82;;
51248;SDS011;39642;47.556;18.728;2024-01-15T14:16:04;20.55;;;5.10;;
51248;SDS011;39642;47.556;18.728;2024-01-15T14:18:32;20.30;;;4.82;;
51248;SDS011;39642;47.556;18.728;2024-01-15T14:37:50;34.75;;;4.70;;
51248;SDS011;39642;47.556;18.728;2024-01-15T14:40:16;22.35;;;3.72;;
51248;SDS011;39642;47.556;18.728;2024-01-15T14:42:42;26.42;;;4.50;;
51248;SDS011;39642;47.556;18.728;2024-01-15T14:45:08;20.12;;;3.92;;
51248;SDS011;39642;47.556;18.728;2024-01-15T14:47:37;22.92;;;3.83;;
51248;SDS011;39642;47.556;18.728;2024-01-15T14:50:07;18.27;;;3.75;;
51248;SDS011;39642;47.556;18.728;2024-01-15T14:52:33;20.90;;;3.92;;